createdAt,value
2023-02-22T00:00:19.509Z,18.91
2023-02-22T00:03:41.706Z,18.87
2023-02-22T00:06:45.410Z,18.87
2023-02-22T00:09:47.598Z,18.86
2023-02-22T00:12:50.604Z,18.87
2023-02-22T00:15:52.779Z,18.84
2023-02-22T00:18:54.863Z,18.84
2023-02-22T00:21:58.076Z,18.81
2023-02-22T00:25:00.021Z,18.79
2023-02-22T00:28:03.745Z,18.80
2023-02-22T00:31:07.609Z,18.77
2023-02-22T00:34:09.857Z,18.70
2023-02-22T00:37:11.842Z,18.69
2023-02-22T00:40:17.988Z,18.71
2023-02-22T00:43:19.800Z,18.67
2023-02-22T00:46:23.197Z,18.70
2023-02-22T00:49:28.078Z,18.70
2023-02-22T00:52:30.186Z,18.64
2023-02-22T00:55:35.096Z,18.66
2023-02-22T00:58:37.248Z,18.63
2023-02-22T01:01:39.175Z,18.64
2023-02-22T01:04:41.540Z,18.63
2023-02-22T01:07:44.041Z,18.57
2023-02-22T01:10:46.683Z,18.55
2023-02-22T01:13:48.612Z,18.60
2023-02-22T01:16:51.029Z,18.57
2023-02-22T01:19:54.101Z,18.56
2023-02-22T01:22:59.645Z,18.56
2023-02-22T01:26:02.876Z,18.56
2023-02-22T01:29:05.011Z,18.59
2023-02-22T01:32:07.354Z,18.57
2023-02-22T01:35:14.307Z,18.57
2023-02-22T01:38:17.288Z,18.55
2023-02-22T01:41:19.452Z,18.47
2023-02-22T01:44:31.378Z,18.42
2023-02-22T01:47:34.537Z,18.43
2023-02-22T01:50:42.211Z,18.49
2023-02-22T01:53:47.647Z,18.46
2023-02-22T01:56:57.035Z,18.45
2023-02-22T02:00:10.083Z,18.45
2023-02-22T02:03:27.487Z,18.43
2023-02-22T02:06:33.590Z,18.35
2023-02-22T02:09:37.382Z,18.30
2023-02-22T02:12:42.197Z,18.26
2023-02-22T02:15:44.885Z,18.28
2023-02-22T02:18:46.989Z,18.26
2023-02-22T02:22:07.013Z,18.19
2023-02-22T02:25:31.176Z,18.29
2023-02-22T02:28:54.891Z,18.22
2023-02-22T02:32:28.623Z,18.18
2023-02-22T02:35:47.891Z,18.15
2023-02-22T02:38:59.332Z,18.19
2023-02-22T02:42:07.442Z,18.21
2023-02-22T02:45:17.635Z,18.18
2023-02-22T02:48:23.612Z,18.26
2023-02-22T02:51:40.370Z,18.28
2023-02-22T02:54:43.391Z,18.24
2023-02-22T02:57:45.575Z,18.26
2023-02-22T03:00:50.394Z,18.26
2023-02-22T03:04:03.077Z,18.22
2023-02-22T03:07:20.244Z,18.21
2023-02-22T03:10:38.891Z,18.19
2023-02-22T03:14:02.131Z,18.16
2023-02-22T03:17:12.122Z,18.09
2023-02-22T03:20:32.048Z,18.09
2023-02-22T03:23:55.591Z,18.18
2023-02-22T03:27:23.658Z,18.18
2023-02-22T03:30:33.906Z,18.16
2023-02-22T03:34:08.747Z,18.19
2023-02-22T03:37:34.266Z,18.16
2023-02-22T03:40:46.534Z,18.15
2023-02-22T03:43:54.690Z,18.09
2023-02-22T03:47:02.070Z,18.08
2023-02-22T03:50:52.767Z,18.05
2023-02-22T03:54:04.954Z,18.04
2023-02-22T03:57:22.454Z,18.05
2023-02-22T04:00:32.080Z,18.04
2023-02-22T04:03:34.253Z,18.05
2023-02-22T04:06:37.009Z,18.08
2023-02-22T04:09:39.590Z,18.06
2023-02-22T04:12:41.777Z,18.06
2023-02-22T04:15:43.961Z,18.05
2023-02-22T04:18:47.788Z,18.08
2023-02-22T04:21:53.562Z,18.09
2023-02-22T04:25:00.233Z,18.09
2023-02-22T04:28:03.390Z,18.08
2023-02-22T04:31:14.500Z,18.09
2023-02-22T04:34:16.926Z,18.08
2023-02-22T04:37:19.270Z,18.12
2023-02-22T04:40:21.632Z,18.12
2023-02-22T04:43:23.569Z,18.06
2023-02-22T04:46:28.397Z,18.04
2023-02-22T04:49:30.796Z,18.04
2023-02-22T04:52:33.883Z,18.05
2023-02-22T04:55:35.805Z,18.05
2023-02-22T04:58:38.004Z,18.05
2023-02-22T05:01:40.056Z,18.05
2023-02-22T05:04:42.295Z,18.01
2023-02-22T05:07:44.902Z,18.04
2023-02-22T05:10:47.053Z,18.04
2023-02-22T05:13:49.262Z,18.05
2023-02-22T05:16:51.854Z,18.08
2023-02-22T05:19:53.729Z,18.10
2023-02-22T05:22:56.887Z,18.06
2023-02-22T05:25:58.917Z,18.05
2023-02-22T05:29:01.096Z,18.05
2023-02-22T05:32:03.278Z,18.06
2023-02-22T05:35:06.095Z,18.05
2023-02-22T05:38:08.392Z,18.09
2023-02-22T05:41:12.559Z,18.05
2023-02-22T05:44:14.752Z,18.05
2023-02-22T05:47:16.833Z,18.04
2023-02-22T05:50:19.917Z,18.02
2023-02-22T05:53:23.839Z,18.02
2023-02-22T05:56:28.393Z,18.01
2023-02-22T05:59:30.640Z,18.01
2023-02-22T06:02:33.880Z,18.04
2023-02-22T06:05:37.447Z,18.05
2023-02-22T06:08:39.737Z,18.04
2023-02-22T06:11:41.823Z,18.04
2023-02-22T06:14:46.036Z,17.99
2023-02-22T06:17:48.467Z,18.02
2023-02-22T06:20:50.978Z,18.01
2023-02-22T06:23:53.249Z,17.99
2023-02-22T06:27:00.440Z,17.98
2023-02-22T06:30:03.164Z,17.96
2023-02-22T06:33:05.076Z,17.98
2023-02-22T06:36:08.010Z,17.96
2023-02-22T06:39:12.900Z,17.94
2023-02-22T06:42:15.141Z,17.95
2023-02-22T06:45:18.330Z,17.95
2023-02-22T06:48:20.542Z,17.92
2023-02-22T06:51:22.828Z,17.95
2023-02-22T06:54:25.016Z,17.94
2023-02-22T06:57:26.980Z,17.96
2023-02-22T07:00:32.254Z,17.99
2023-02-22T07:03:35.900Z,17.92
2023-02-22T07:06:38.468Z,17.88
2023-02-22T07:09:40.483Z,17.88
2023-02-22T07:12:42.751Z,17.89
2023-02-22T07:15:44.990Z,17.88
2023-02-22T07:18:50.833Z,17.86
2023-02-22T07:21:59.360Z,17.88
2023-02-22T07:25:01.835Z,17.86
2023-02-22T07:28:04.023Z,17.95
2023-02-22T07:31:06.267Z,17.99
2023-02-22T07:34:08.225Z,17.96
2023-02-22T07:37:10.626Z,17.96
2023-02-22T07:40:12.768Z,17.95
2023-02-22T07:43:24.632Z,17.89
2023-02-22T07:46:27.875Z,17.96
2023-02-22T07:49:30.194Z,17.98
2023-02-22T07:52:32.102Z,17.99
2023-02-22T07:55:35.013Z,17.98
2023-02-22T07:58:37.175Z,18.01
2023-02-22T08:01:40.174Z,17.99
2023-02-22T08:04:42.103Z,17.99
2023-02-22T08:07:44.327Z,17.98
2023-02-22T08:10:46.707Z,18.01
2023-02-22T08:13:48.869Z,18.01
2023-02-22T08:16:50.895Z,18.01
2023-02-22T08:19:53.098Z,18.02
2023-02-22T08:22:56.003Z,17.98
2023-02-22T08:26:04.937Z,17.96
2023-02-22T08:29:07.174Z,17.96
2023-02-22T08:32:09.446Z,18.01
2023-02-22T08:35:14.052Z,18.01
2023-02-22T08:38:23.126Z,17.99
2023-02-22T08:41:25.103Z,17.98
2023-02-22T08:44:27.285Z,17.98
2023-02-22T08:47:29.246Z,17.98
2023-02-22T08:50:35.749Z,17.95
2023-02-22T08:53:38.381Z,17.98
2023-02-22T08:56:40.484Z,17.96
2023-02-22T08:59:42.894Z,18.01
2023-02-22T09:02:45.366Z,18.01
2023-02-22T09:05:47.675Z,17.99
2023-02-22T09:08:50.068Z,17.99
2023-02-22T09:11:53.186Z,18.02
2023-02-22T09:14:55.421Z,18.01
2023-02-22T09:17:57.645Z,18.01
2023-02-22T09:20:59.991Z,17.98
2023-02-22T09:24:08.489Z,18.02
2023-02-22T09:27:12.212Z,17.98
2023-02-22T09:30:26.582Z,18.01
2023-02-22T09:33:28.963Z,18.06
2023-02-22T09:36:30.863Z,18.02
2023-02-22T09:39:37.514Z,18.02
2023-02-22T09:42:45.652Z,18.02
2023-02-22T09:46:19.783Z,18.02
2023-02-22T09:49:29.557Z,18.04
2023-02-22T09:52:40.100Z,18.04
2023-02-22T09:55:53.430Z,18.05
2023-02-22T09:59:00.408Z,18.05
2023-02-22T10:02:26.915Z,18.06
2023-02-22T10:05:38.086Z,18.09
2023-02-22T10:08:41.814Z,18.05
2023-02-22T10:12:11.945Z,18.06
2023-02-22T10:15:16.710Z,18.06
2023-02-22T10:18:34.065Z,18.06
2023-02-22T10:22:00.229Z,18.06
2023-02-22T10:25:05.285Z,18.04
2023-02-22T10:28:18.762Z,18.09
2023-02-22T10:31:28.424Z,18.05
2023-02-22T10:34:41.518Z,18.05
2023-02-22T10:37:44.821Z,18.06
2023-02-22T10:41:09.901Z,18.10
2023-02-22T10:44:12.125Z,18.13
2023-02-22T10:47:17.859Z,18.13
2023-02-22T10:50:21.775Z,18.09
2023-02-22T10:53:23.748Z,18.06
2023-02-22T10:56:27.770Z,18.10
2023-02-22T10:59:35.457Z,18.12
2023-02-22T11:02:37.994Z,18.10
2023-02-22T11:05:41.269Z,18.10
2023-02-22T11:08:44.104Z,18.15
2023-02-22T11:11:48.109Z,18.16
2023-02-22T11:14:50.415Z,18.19
2023-02-22T11:17:55.723Z,18.08
2023-02-22T11:21:11.763Z,18.06
2023-02-22T11:27:41.541Z,18.09
2023-02-22T11:30:46.730Z,18.09
2023-02-22T11:37:38.249Z,18.16
2023-02-22T11:40:48.718Z,18.19
2023-02-22T11:43:51.955Z,18.18
2023-02-22T11:46:57.131Z,18.22
2023-02-22T11:49:59.192Z,18.18
2023-02-22T11:54:22.149Z,18.18
2023-02-22T11:58:08.426Z,18.19
2023-02-22T12:05:40.710Z,18.24
2023-02-22T12:09:04.177Z,18.25
2023-02-22T12:12:18.607Z,18.21
2023-02-22T12:19:19.500Z,18.32
2023-02-22T12:22:38.990Z,18.32
2023-02-22T12:26:11.786Z,18.36
2023-02-22T12:29:27.302Z,18.42
2023-02-22T12:32:59.563Z,18.45
2023-02-22T12:36:02.324Z,18.46
2023-02-22T12:39:29.340Z,18.46
2023-02-22T12:42:50.539Z,18.46
2023-02-22T12:46:26.732Z,18.45
2023-02-22T12:49:49.931Z,18.49
2023-02-22T12:53:00.140Z,18.47
2023-02-22T12:56:32.509Z,18.45
2023-02-22T12:59:57.741Z,18.47
2023-02-22T13:03:13.616Z,18.56
2023-02-22T13:06:18.847Z,18.60
2023-02-22T13:09:56.268Z,18.69
2023-02-22T13:13:26.289Z,18.79
2023-02-22T13:16:53.949Z,18.86
2023-02-22T13:20:14.443Z,18.96
2023-02-22T13:23:55.074Z,18.94
2023-02-22T13:27:04.230Z,18.96
2023-02-22T13:31:07.802Z,19.04
2023-02-22T13:34:26.253Z,19.04
2023-02-22T13:38:19.451Z,19.07
2023-02-22T13:41:32.931Z,19.06
2023-02-22T13:45:08.574Z,19.12
2023-02-22T13:48:24.751Z,19.15
2023-02-22T13:51:46.455Z,19.22
2023-02-22T13:55:00.357Z,19.27
2023-02-22T13:58:11.875Z,19.24
2023-02-22T14:01:41.739Z,19.27
2023-02-22T14:04:44.278Z,19.25
2023-02-22T14:07:49.554Z,19.25
2023-02-22T14:10:55.959Z,19.28
2023-02-22T14:14:01.180Z,19.34
2023-02-22T14:17:20.918Z,19.27
2023-02-22T14:20:35.473Z,19.15
2023-02-22T14:23:40.897Z,19.08
2023-02-22T14:26:59.574Z,19.06
2023-02-22T14:30:01.807Z,19.06
2023-02-22T14:33:44.238Z,19.01
2023-02-22T14:37:01.221Z,18.97
2023-02-22T14:40:20.125Z,18.93
2023-02-22T14:43:36.823Z,18.94
2023-02-22T14:46:55.087Z,18.89
2023-02-22T14:50:33.212Z,18.86
2023-02-22T14:53:46.775Z,18.80
2023-02-22T14:57:15.124Z,18.79
2023-02-22T15:00:30.894Z,18.73
2023-02-22T15:03:38.220Z,18.77
2023-02-22T15:06:40.689Z,18.89
2023-02-22T15:09:47.198Z,19.00
2023-02-22T15:13:10.802Z,19.04
2023-02-22T15:16:15.786Z,19.04
2023-02-22T15:19:27.177Z,19.11
2023-02-22T15:22:36.112Z,19.12
2023-02-22T15:25:39.435Z,19.11
2023-02-22T15:28:42.809Z,19.17
2023-02-22T15:31:49.968Z,19.22
2023-02-22T15:34:52.128Z,19.28
2023-02-22T15:38:16.556Z,19.28
2023-02-22T15:41:31.629Z,19.28
2023-02-22T15:44:42.476Z,19.36
2023-02-22T15:47:44.607Z,19.39
2023-02-22T15:51:09.423Z,19.38
2023-02-22T15:54:26.641Z,19.41
2023-02-22T15:57:30.720Z,19.36
2023-02-22T16:00:40.317Z,19.39
2023-02-22T16:03:51.579Z,19.45
2023-02-22T16:07:04.913Z,19.51
2023-02-22T16:10:09.417Z,19.55
2023-02-22T16:13:31.468Z,19.51
2023-02-22T16:16:37.359Z,19.54
2023-02-22T16:19:44.916Z,19.55
2023-02-22T16:22:49.803Z,19.58
2023-02-22T16:26:07.920Z,19.59
2023-02-22T16:29:25.000Z,19.61
2023-02-22T16:32:27.408Z,19.57
2023-02-22T16:35:30.178Z,19.55
2023-02-22T16:38:33.820Z,19.57
2023-02-22T16:41:36.951Z,19.52
2023-02-22T16:44:39.314Z,19.54
2023-02-22T16:47:47.144Z,19.52
2023-02-22T16:50:54.328Z,19.48
2023-02-22T16:53:57.309Z,19.47
2023-02-22T16:57:02.813Z,19.45
2023-02-22T17:00:10.456Z,19.61
2023-02-22T17:03:20.986Z,19.66
2023-02-22T17:06:23.731Z,19.65
2023-02-22T17:09:26.462Z,19.63
2023-02-22T17:12:32.438Z,19.61
2023-02-22T17:15:37.212Z,19.69
2023-02-22T17:18:40.283Z,19.71
2023-02-22T17:21:42.385Z,19.72
2023-02-22T17:25:00.012Z,19.66
2023-02-22T17:28:02.222Z,19.58
2023-02-22T17:31:05.663Z,19.57
2023-02-22T17:34:08.545Z,19.58
2023-02-22T17:37:10.964Z,19.66
2023-02-22T17:40:15.083Z,19.66
2023-02-22T17:43:19.485Z,19.66
2023-02-22T17:46:22.056Z,19.68
2023-02-22T17:49:24.477Z,19.65
2023-02-22T17:52:30.622Z,19.63
2023-02-22T17:55:38.339Z,19.71
2023-02-22T17:58:41.455Z,19.66
2023-02-22T18:01:44.560Z,19.66
2023-02-22T18:04:48.452Z,19.65
2023-02-22T18:07:51.456Z,19.66
2023-02-22T18:10:56.812Z,19.65
2023-02-22T18:13:59.996Z,19.58
2023-02-22T18:17:02.576Z,19.52
2023-02-22T18:20:15.535Z,19.51
2023-02-22T18:23:21.300Z,19.55
2023-02-22T18:26:25.543Z,19.50
2023-02-22T18:29:29.072Z,19.50
2023-02-22T18:32:32.077Z,19.52
2023-02-22T18:35:34.630Z,19.48
2023-02-22T18:38:44.013Z,19.47
2023-02-22T18:41:48.793Z,19.50
2023-02-22T18:44:53.068Z,19.50
2023-02-22T18:47:55.208Z,19.51
2023-02-22T18:51:01.528Z,19.50
2023-02-22T18:54:13.176Z,19.50
2023-02-22T18:57:17.298Z,19.52
2023-02-22T19:00:28.971Z,19.52
2023-02-22T19:03:38.477Z,19.51
2023-02-22T19:06:48.340Z,19.45
2023-02-22T19:09:51.945Z,19.45
2023-02-22T19:12:58.397Z,19.51
2023-02-22T19:16:10.502Z,19.51
2023-02-22T19:19:15.015Z,19.52
2023-02-22T19:22:17.310Z,19.51
2023-02-22T19:25:19.377Z,19.52
2023-02-22T19:28:28.872Z,19.55
2023-02-22T19:31:34.090Z,19.52
2023-02-22T19:34:37.817Z,19.48
2023-02-22T19:37:42.183Z,19.52
2023-02-22T19:41:16.278Z,19.52
2023-02-22T19:44:29.616Z,19.42
2023-02-22T19:47:34.841Z,19.38
2023-02-22T19:50:48.740Z,19.36
2023-02-22T19:53:52.148Z,19.39
2023-02-22T19:56:58.846Z,19.58
2023-02-22T20:00:10.852Z,19.66
2023-02-22T20:03:15.690Z,19.68
2023-02-22T20:06:18.133Z,19.65
2023-02-22T20:09:40.419Z,19.69
2023-02-22T20:12:45.651Z,19.76
2023-02-22T20:15:50.824Z,19.81
2023-02-22T20:18:54.937Z,19.75
2023-02-22T20:21:57.617Z,19.71
2023-02-22T20:25:00.353Z,19.72
2023-02-22T20:28:02.593Z,19.73
2023-02-22T20:31:11.367Z,19.68
2023-02-22T20:34:13.789Z,19.73
2023-02-22T20:37:16.393Z,19.69
2023-02-22T20:40:18.880Z,19.71
2023-02-22T20:43:21.998Z,19.62
2023-02-22T20:46:25.377Z,19.54
2023-02-22T20:49:28.834Z,19.50
2023-02-22T20:52:31.501Z,19.45
2023-02-22T20:55:34.288Z,19.44
2023-02-22T20:58:36.458Z,19.39
2023-02-22T21:01:39.945Z,19.41
2023-02-22T21:04:42.191Z,19.39
2023-02-22T21:07:45.090Z,19.42
2023-02-22T21:10:48.403Z,19.36
2023-02-22T21:13:52.092Z,19.32
2023-02-22T21:16:54.397Z,19.36
2023-02-22T21:19:59.039Z,19.38
2023-02-22T21:23:03.299Z,19.44
2023-02-22T21:26:07.387Z,18.94
2023-02-22T21:29:10.806Z,19.03
2023-02-22T21:32:14.574Z,18.89
2023-02-22T21:35:16.839Z,17.03
2023-02-22T21:38:21.023Z,14.99
2023-02-22T21:41:27.961Z,13.67
2023-02-22T21:44:30.707Z,15.94
2023-02-22T21:47:35.940Z,14.92
2023-02-22T21:50:38.412Z,13.57
2023-02-22T21:53:48.219Z,12.30
2023-02-22T21:56:50.970Z,11.28
2023-02-22T21:59:53.468Z,10.50
2023-02-22T22:03:09.888Z,10.34
2023-02-22T22:06:13.720Z,10.08
2023-02-22T22:09:19.695Z,10.67
2023-02-22T22:12:25.969Z,14.35
2023-02-22T22:15:42.758Z,16.25
2023-02-22T22:18:47.292Z,17.35
2023-02-22T22:21:53.514Z,18.02
2023-02-22T22:24:55.787Z,18.42
2023-02-22T22:27:58.145Z,18.69
2023-02-22T22:31:00.231Z,18.91
2023-02-22T22:34:02.899Z,19.00
2023-02-22T22:37:05.116Z,19.10
2023-02-22T22:40:15.880Z,19.18
2023-02-22T22:43:18.318Z,19.17
2023-02-22T22:46:21.684Z,19.17
2023-02-22T22:49:26.142Z,19.28
2023-02-22T22:52:31.558Z,19.30
2023-02-22T22:55:33.559Z,19.32
2023-02-22T22:58:36.869Z,19.35
2023-02-22T23:01:44.713Z,19.38
2023-02-22T23:04:52.130Z,19.39
2023-02-22T23:07:56.559Z,19.36
2023-02-22T23:10:59.097Z,19.39
2023-02-22T23:14:04.863Z,19.47
2023-02-22T23:17:14.270Z,19.51
2023-02-22T23:20:17.314Z,18.32
2023-02-22T23:23:20.168Z,18.64
2023-02-22T23:26:26.950Z,19.08
2023-02-22T23:29:32.444Z,19.31
2023-02-22T23:32:35.268Z,19.39
2023-02-22T23:35:38.710Z,19.45
2023-02-22T23:38:42.571Z,19.54
2023-02-22T23:41:45.502Z,19.61
2023-02-22T23:44:48.179Z,19.62
2023-02-22T23:47:57.448Z,19.63
2023-02-22T23:50:59.903Z,19.63
2023-02-22T23:54:02.471Z,19.68
2023-02-22T23:57:06.417Z,19.68
